Time;durP1;ratioP1;P1;durP2;ratioP2;P2;SDS_P1;SDS_P2;PMS_P1;PMS_P2;Temp;Humidity;BMP_temperature;BMP_pressure;BME280_temperature;BME280_humidity;BME280_pressure;Samples;Min_cycle;Max_cycle;Signal;HPM_P1;HPM_P2
2023/06/28 00:00:10;;;;;;;4.57;1.60;;;;;;;;;;5016997;28;20051;-75
2023/06/28 00:02:36;;;;;;;4.43;1.45;;;;;;;;;;5033570;28;20049;-75
2023/06/28 00:05:09;;;;;;;5.43;1.77;;;;;;;;;;5034287;28;20132;-75
2023/06/28 00:07:35;;;;;;;5.70;1.35;;;;;;;;;;5033511;28;20057;-75
2023/06/28 00:10:01;;;;;;;4.22;1.23;;;;;;;;;;5034503;28;20053;-75
2023/06/28 00:12:29;;;;;;;4.90;1.52;;;;;;;;;;5034415;28;20041;-75
2023/06/28 00:14:55;;;;;;;5.05;1.65;;;;;;;;;;5033925;28;20049;-75
2023/06/28 00:17:27;;;;;;;6.57;1.67;;;;;;;;;;5034274;28;20049;-75
2023/06/28 00:19:54;;;;;;;4.75;1.85;;;;;;;;;;5034814;28;20103;-76
2023/06/28 00:22:22;;;;;;;6.40;2.10;;;;;;;;;;5034157;28;20131;-75
2023/06/28 00:24:48;;;;;;;6.38;2.33;;;;;;;;;;5032919;28;20050;-75
2023/06/28 00:27:14;;;;;;;4.30;2.40;;;;;;;;;;5034655;28;20584;-82
2023/06/28 00:29:40;;;;;;;4.40;1.70;;;;;;;;;;5032767;28;20167;-75
2023/06/28 00:32:06;;;;;;;5.55;2.78;;;;;;;;;;5034023;28;20088;-75
2023/06/28 00:34:32;;;;;;;4.38;2.13;;;;;;;;;;5033033;28;20064;-75
2023/06/28 00:36:59;;;;;;;6.43;2.10;;;;;;;;;;5033943;28;20041;-75
2023/06/28 00:39:25;;;;;;;6.43;3.28;;;;;;;;;;5033977;28;20068;-75
2023/06/28 00:41:51;;;;;;;4.78;2.17;;;;;;;;;;5032601;28;20061;-75
2023/06/28 00:44:17;;;;;;;6.10;2.33;;;;;;;;;;5033628;28;20103;-75
2023/06/28 00:46:43;;;;;;;5.05;2.58;;;;;;;;;;5033748;28;20064;-75
2023/06/28 00:49:09;;;;;;;3.90;1.88;;;;;;;;;;5033758;28;20060;-75
2023/06/28 00:51:35;;;;;;;4.15;2.65;;;;;;;;;;5033294;28;20556;-75
2023/06/28 00:54:02;;;;;;;4.30;2.33;;;;;;;;;;5033460;28;20045;-74
2023/06/28 00:56:28;;;;;;;4.15;2.85;;;;;;;;;;5033381;28;20508;-75
2023/06/28 00:58:55;;;;;;;3.80;2.13;;;;;;;;;;5033562;28;20060;-74
2023/06/28 01:01:21;;;;;;;4.25;2.38;;;;;;;;;;5033666;28;20425;-75
2023/06/28 01:03:50;;;;;;;2.67;2.42;;;;;;;;;;5032910;28;20444;-75
2023/06/28 01:06:17;;;;;;;3.92;2.15;;;;;;;;;;5033223;28;20144;-75
2023/06/28 01:08:43;;;;;;;5.25;2.40;;;;;;;;;;5034085;28;20099;-74
2023/06/28 01:11:11;;;;;;;5.20;2.67;;;;;;;;;;5033508;28;20045;-75
2023/06/28 01:13:38;;;;;;;5.63;3.35;;;;;;;;;;5033568;28;20133;-75
2023/06/28 01:16:05;;;;;;;4.32;2.65;;;;;;;;;;5032489;28;20132;-75
2023/06/28 01:18:34;;;;;;;5.32;3.00;;;;;;;;;;5033194;28;20049;-75
2023/06/28 01:21:05;;;;;;;4.93;2.95;;;;;;;;;;5033983;28;20045;-74
2023/06/28 01:23:32;;;;;;;4.00;3.28;;;;;;;;;;5033433;28;20085;-74
2023/06/28 01:26:02;;;;;;;6.03;3.60;;;;;;;;;;5032044;28;20176;-75
2023/06/28 01:28:28;;;;;;;5.60;3.33;;;;;;;;;;5032428;28;20049;-75
2023/06/28 01:30:54;;;;;;;5.60;3.72;;;;;;;;;;5033447;28;20053;-74
2023/06/28 01:33:20;;;;;;;5.63;2.90;;;;;;;;;;5032157;28;20049;-74
2023/06/28 01:35:46;;;;;;;6.90;3.20;;;;;;;;;;5031778;28;20076;-74
2023/06/28 01:38:13;;;;;;;6.85;3.60;;;;;;;;;;5032293;28;20140;-75
2023/06/28 01:40:39;;;;;;;5.80;3.53;;;;;;;;;;5033304;28;20046;-75
2023/06/28 01:43:06;;;;;;;4.22;3.58;;;;;;;;;;5033272;28;20059;-75
2023/06/28 01:45:36;;;;;;;7.53;4.38;;;;;;;;;;5033160;28;20045;-74
2023/06/28 01:48:02;;;;;;;6.18;3.35;;;;;;;;;;5033772;28;20053;-74
2023/06/28 01:50:29;;;;;;;4.97;3.40;;;;;;;;;;5033420;28;20474;-74
2023/06/28 01:52:59;;;;;;;5.25;3.60;;;;;;;;;;5033663;28;20386;-74
2023/06/28 01:55:25;;;;;;;4.63;4.07;;;;;;;;;;5033148;28;20053;-74
2023/06/28 01:57:51;;;;;;;6.28;4.72;;;;;;;;;;5032864;28;20046;-74
2023/06/28 02:00:17;;;;;;;6.85;4.22;;;;;;;;;;5031802;28;20057;-75
2023/06/28 02:02:44;;;;;;;7.53;4.68;;;;;;;;;;5033890;28;20103;-74
2023/06/28 02:05:10;;;;;;;7.15;4.65;;;;;;;;;;5033145;28;20045;-74
2023/06/28 02:07:36;;;;;;;6.68;4.22;;;;;;;;;;5019139;28;20400;-74
2023/06/28 02:10:02;;;;;;;9.02;5.03;;;;;;;;;;5035789;28;20119;-74
2023/06/28 02:12:28;;;;;;;8.13;4.88;;;;;;;;;;5035702;28;20374;-75
2023/06/28 02:14:54;;;;;;;8.80;4.95;;;;;;;;;;5036453;28;20046;-75
2023/06/28 02:17:20;;;;;;;4.88;4.45;;;;;;;;;;5037162;28;20049;-74
2023/06/28 02:19:50;;;;;;;6.28;4.88;;;;;;;;;;5036486;28;20489;-74
2023/06/28 02:22:17;;;;;;;6.47;5.15;;;;;;;;;;5035362;28;20049;-75
2023/06/28 02:24:43;;;;;;;7.38;4.60;;;;;;;;;;5036268;28;20072;-75
2023/06/28 02:27:09;;;;;;;6.32;5.05;;;;;;;;;;5035192;28;20088;-75
2023/06/28 02:29:35;;;;;;;6.28;4.57;;;;;;;;;;5035342;28;20046;-75
2023/06/28 02:32:02;;;;;;;6.18;5.20;;;;;;;;;;5035384;28;20042;-75
2023/06/28 02:34:28;;;;;;;8.70;5.00;;;;;;;;;;5018856;28;20050;-75
2023/06/28 02:36:54;;;;;;;7.57;4.93;;;;;;;;;;5036270;28;20124;-75
2023/06/28 02:39:20;;;;;;;5.57;4.97;;;;;;;;;;5035066;28;20052;-75
2023/06/28 02:41:46;;;;;;;6.97;5.53;;;;;;;;;;5035271;28;20081;-75
2023/06/28 02:44:12;;;;;;;4.55;4.13;;;;;;;;;;5035769;28;20512;-75
2023/06/28 02:46:38;;;;;;;6.68;4.65;;;;;;;;;;5036018;28;20041;-75
2023/06/28 02:49:05;;;;;;;6.43;5.13;;;;;;;;;;5034997;28;20485;-74
2023/06/28 02:51:31;;;;;;;8.30;5.07;;;;;;;;;;5035547;28;20496;-75
2023/06/28 02:53:57;;;;;;;5.40;4.97;;;;;;;;;;5035904;28;20049;-75
2023/06/28 02:56:23;;;;;;;6.07;4.85;;;;;;;;;;5034909;28;20085;-75
2023/06/28 02:58:50;;;;;;;5.53;5.00;;;;;;;;;;5034464;28;20099;-75
2023/06/28 03:01:16;;;;;;;5.30;4.60;;;;;;;;;;5035746;28;20099;-75
2023/06/28 03:03:42;;;;;;;6.22;5.05;;;;;;;;;;5035964;28;20379;-75
2023/06/28 03:06:08;;;;;;;6.03;5.35;;;;;;;;;;5034561;28;20054;-75
2023/06/28 03:08:35;;;;;;;9.63;4.93;;;;;;;;;;5034227;28;20053;-75
2023/06/28 03:11:01;;;;;;;5.57;4.78;;;;;;;;;;5018430;28;20049;-74
2023/06/28 03:13:27;;;;;;;8.40;5.20;;;;;;;;;;5034977;28;20049;-75
2023/06/28 03:15:53;;;;;;;6.43;5.07;;;;;;;;;;5034601;28;20076;-75
2023/06/28 03:18:19;;;;;;;5.78;4.18;;;;;;;;;;5034922;28;20049;-75
2023/06/28 03:20:45;;;;;;;5.43;4.90;;;;;;;;;;5018785;28;20052;-75
2023/06/28 03:23:11;;;;;;;6.50;4.40;;;;;;;;;;5035450;28;20132;-75
2023/06/28 03:25:37;;;;;;;4.80;4.20;;;;;;;;;;5034805;28;20509;-75
2023/06/28 03:28:03;;;;;;;6.38;4.65;;;;;;;;;;5034211;28;20060;-75
2023/06/28 03:30:29;;;;;;;6.03;4.10;;;;;;;;;;5035294;28;20053;-75
2023/06/28 03:32:55;;;;;;;4.82;4.03;;;;;;;;;;5034188;28;20049;-75
2023/06/28 03:35:21;;;;;;;6.82;3.75;;;;;;;;;;5034416;28;20080;-75
2023/06/28 03:37:54;;;;;;;7.22;3.83;;;;;;;;;;5035608;28;20440;-75
2023/06/28 03:40:21;;;;;;;7.03;4.20;;;;;;;;;;5035022;28;20106;-75
2023/06/28 03:42:48;;;;;;;5.90;3.50;;;;;;;;;;5034303;28;20060;-75
2023/06/28 03:45:17;;;;;;;7.88;3.58;;;;;;;;;;5034188;28;20081;-75
2023/06/28 03:47:43;;;;;;;8.13;3.42;;;;;;;;;;5034694;28;20045;-75
2023/06/28 03:50:09;;;;;;;6.97;3.53;;;;;;;;;;5034577;28;20576;-75
2023/06/28 03:52:36;;;;;;;4.32;3.22;;;;;;;;;;5034762;28;20075;-75
2023/06/28 03:55:03;;;;;;;6.75;4.00;;;;;;;;;;5034820;28;20056;-75
2023/06/28 03:57:29;;;;;;;4.68;3.08;;;;;;;;;;5034457;28;20041;-75
2023/06/28 03:59:55;;;;;;;7.55;3.15;;;;;;;;;;5033934;28;20088;-75
2023/06/28 04:02:21;;;;;;;6.78;3.00;;;;;;;;;;5018034;28;20056;-74
2023/06/28 04:04:48;;;;;;;7.05;3.25;;;;;;;;;;5033406;28;20052;-76
2023/06/28 04:07:16;;;;;;;4.80;3.10;;;;;;;;;;5034444;28;20124;-75
2023/06/28 04:09:45;;;;;;;3.03;2.58;;;;;;;;;;5034466;28;20060;-75
2023/06/28 04:12:11;;;;;;;3.53;3.20;;;;;;;;;;5017496;28;20374;-75
2023/06/28 04:14:37;;;;;;;4.90;3.67;;;;;;;;;;5034225;28;20081;-75
2023/06/28 04:17:03;;;;;;;7.20;3.35;;;;;;;;;;5034334;28;20041;-75
2023/06/28 04:19:29;;;;;;;5.82;2.88;;;;;;;;;;5034344;28;20371;-75
2023/06/28 04:21:55;;;;;;;10.68;3.20;;;;;;;;;;5034007;28;20132;-75
2023/06/28 04:24:21;;;;;;;5.18;3.38;;;;;;;;;;5033251;28;20049;-75
2023/06/28 04:26:47;;;;;;;3.78;2.80;;;;;;;;;;5032797;28;20053;-75
2023/06/28 04:29:13;;;;;;;4.13;2.83;;;;;;;;;;5032766;28;20057;-75
2023/06/28 04:31:39;;;;;;;4.07;2.65;;;;;;;;;;5032825;28;20049;-75
2023/06/28 04:34:05;;;;;;;6.22;3.10;;;;;;;;;;5032710;28;20136;-76
2023/06/28 04:36:31;;;;;;;3.45;3.03;;;;;;;;;;5034077;28;20049;-76
2023/06/28 04:38:57;;;;;;;3.92;2.90;;;;;;;;;;5032988;28;20534;-75
2023/06/28 04:41:25;;;;;;;4.53;2.80;;;;;;;;;;5016512;28;20057;-75
2023/06/28 04:43:54;;;;;;;3.17;2.90;;;;;;;;;;5033789;28;20479;-75
2023/06/28 04:46:20;;;;;;;4.57;2.75;;;;;;;;;;5032746;28;20045;-75
2023/06/28 04:48:46;;;;;;;4.75;2.80;;;;;;;;;;5033855;28;20041;-75
2023/06/28 04:51:12;;;;;;;6.40;2.90;;;;;;;;;;5033845;28;20057;-75
2023/06/28 04:53:38;;;;;;;4.75;3.13;;;;;;;;;;5032807;28;20486;-74
2023/06/28 04:56:05;;;;;;;3.83;2.88;;;;;;;;;;5032584;28;20081;-75
2023/06/28 04:58:33;;;;;;;5.28;3.35;;;;;;;;;;5033656;28;20092;-74
2023/06/28 05:01:03;;;;;;;5.22;3.00;;;;;;;;;;5032726;28;20054;-74
2023/06/28 05:03:29;;;;;;;4.53;2.70;;;;;;;;;;5033644;28;20075;-75
2023/06/28 05:05:55;;;;;;;4.05;2.70;;;;;;;;;;5033569;28;20056;-75
2023/06/28 05:08:21;;;;;;;4.97;2.55;;;;;;;;;;5034486;28;20085;-75
2023/06/28 05:10:47;;;;;;;5.53;2.30;;;;;;;;;;5033440;28;20049;-74
2023/06/28 05:13:13;;;;;;;2.83;2.08;;;;;;;;;;5032321;28;20507;-74
2023/06/28 05:15:40;;;;;;;4.93;2.00;;;;;;;;;;5032583;28;20053;-74
2023/06/28 05:18:06;;;;;;;3.13;1.90;;;;;;;;;;5033278;28;20132;-74
2023/06/28 05:20:32;;;;;;;2.83;1.70;;;;;;;;;;5032531;28;20045;-74
2023/06/28 05:23:11;;;;;;;3.75;1.95;;;;;;;;;;5032754;28;20512;-75
2023/06/28 05:25:40;;;;;;;2.22;1.60;;;;;;;;;;5033671;28;20083;-76
2023/06/28 05:28:07;;;;;;;2.70;1.50;;;;;;;;;;5033831;28;20053;-76
2023/06/28 05:30:33;;;;;;;4.63;2.05;;;;;;;;;;5032399;28;20049;-76
2023/06/28 05:33:02;;;;;;;4.47;1.70;;;;;;;;;;5032352;28;20474;-76
2023/06/28 05:35:32;;;;;;;2.42;1.30;;;;;;;;;;5015922;28;20042;-76
2023/06/28 05:37:58;;;;;;;3.95;1.55;;;;;;;;;;5032284;28;20049;-76
2023/06/28 05:40:25;;;;;;;2.28;1.27;;;;;;;;;;5033464;28;20509;-76
2023/06/28 05:42:51;;;;;;;3.90;1.45;;;;;;;;;;5036308;28;20061;-76
2023/06/28 05:45:17;;;;;;;3.15;1.33;;;;;;;;;;5035818;28;20053;-76
2023/06/28 05:47:44;;;;;;;4.97;1.63;;;;;;;;;;5037149;28;20041;-76
2023/06/28 05:50:10;;;;;;;2.22;1.33;;;;;;;;;;5035871;28;20107;-73
2023/06/28 05:52:36;;;;;;;2.45;1.33;;;;;;;;;;5036343;28;20494;-74
2023/06/28 05:55:02;;;;;;;3.05;1.25;;;;;;;;;;5036450;28;20047;-75
2023/06/28 05:57:28;;;;;;;2.13;1.00;;;;;;;;;;5037002;28;20045;-76
2023/06/28 05:59:54;;;;;;;2.50;1.20;;;;;;;;;;5036952;28;20146;-75
2023/06/28 06:02:21;;;;;;;1.67;1.10;;;;;;;;;;5035952;28;20390;-75
2023/06/28 06:04:47;;;;;;;1.92;0.93;;;;;;;;;;5035547;28;20042;-74
2023/06/28 06:07:13;;;;;;;2.38;0.90;;;;;;;;;;5036712;28;20041;-74
2023/06/28 06:09:39;;;;;;;3.53;0.90;;;;;;;;;;5036805;28;20087;-74
2023/06/28 06:12:06;;;;;;;1.15;0.73;;;;;;;;;;5036626;28;20090;-75
2023/06/28 06:14:33;;;;;;;1.35;0.60;;;;;;;;;;5036670;28;20052;-75
2023/06/28 06:16:59;;;;;;;4.88;1.20;;;;;;;;;;5035592;28;20041;-74
2023/06/28 06:19:25;;;;;;;2.97;1.38;;;;;;;;;;5037280;28;20045;-74
2023/06/28 06:21:51;;;;;;;2.63;1.38;;;;;;;;;;5035221;28;20057;-75
2023/06/28 06:24:17;;;;;;;2.80;1.52;;;;;;;;;;5035459;28;20084;-75
2023/06/28 06:26:43;;;;;;;3.55;2.10;;;;;;;;;;5037328;28;20132;-75
2023/06/28 06:29:09;;;;;;;2.95;1.88;;;;;;;;;;5036345;28;20393;-75
2023/06/28 06:31:35;;;;;;;3.53;2.55;;;;;;;;;;5035569;28;20045;-75
2023/06/28 06:34:02;;;;;;;4.63;2.92;;;;;;;;;;5036303;28;20049;-75
2023/06/28 06:36:28;;;;;;;6.10;2.63;;;;;;;;;;5035260;28;20055;-75
2023/06/28 06:38:55;;;;;;;2.58;2.30;;;;;;;;;;5036246;28;20045;-74
2023/06/28 06:41:21;;;;;;;3.83;3.00;;;;;;;;;;5036800;28;20057;-75
2023/06/28 06:43:47;;;;;;;3.85;3.03;;;;;;;;;;5036714;28;20049;-74
2023/06/28 06:46:13;;;;;;;3.55;2.90;;;;;;;;;;5036620;28;20132;-75
2023/06/28 06:48:39;;;;;;;3.85;2.83;;;;;;;;;;5036627;28;20052;-75
2023/06/28 06:51:07;;;;;;;6.65;3.17;;;;;;;;;;5035975;28;20055;-75
2023/06/28 06:53:38;;;;;;;5.32;3.38;;;;;;;;;;5035845;28;20547;-75
2023/06/28 06:56:09;;;;;;;4.18;3.72;;;;;;;;;;5035290;28;20512;-75
2023/06/28 06:58:36;;;;;;;5.13;3.83;;;;;;;;;;5035286;28;20057;-75
2023/06/28 07:01:02;;;;;;;6.80;4.05;;;;;;;;;;5035810;28;20049;-75
2023/06/28 07:03:28;;;;;;;6.28;4.18;;;;;;;;;;5035600;28;20366;-76
2023/06/28 07:05:54;;;;;;;5.28;3.97;;;;;;;;;;5035427;28;20499;-75
2023/06/28 07:08:20;;;;;;;5.10;4.13;;;;;;;;;;5036493;28;20068;-76
2023/06/28 07:10:47;;;;;;;6.88;3.92;;;;;;;;;;5034702;28;20132;-76
2023/06/28 07:13:14;;;;;;;4.78;3.92;;;;;;;;;;5034652;28;20103;-75
2023/06/28 07:15:40;;;;;;;6.07;4.43;;;;;;;;;;5034281;28;20099;-75
2023/06/28 07:18:06;;;;;;;8.10;4.55;;;;;;;;;;5034824;28;20068;-75
2023/06/28 07:20:32;;;;;;;6.75;4.60;;;;;;;;;;5034439;28;20053;-76
2023/06/28 07:22:58;;;;;;;7.63;4.45;;;;;;;;;;5036157;28;20049;-76
2023/06/28 07:25:24;;;;;;;8.50;4.75;;;;;;;;;;5035601;28;20057;-76
2023/06/28 07:27:50;;;;;;;7.65;4.72;;;;;;;;;;5034129;28;20386;-76
2023/06/28 07:30:17;;;;;;;6.40;4.00;;;;;;;;;;5033336;28;20091;-76
2023/06/28 07:32:43;;;;;;;6.15;3.92;;;;;;;;;;5033477;28;20045;-75
2023/06/28 07:35:09;;;;;;;8.40;4.70;;;;;;;;;;5033220;28;20080;-76
2023/06/28 07:37:35;;;;;;;7.05;4.28;;;;;;;;;;5016927;28;20098;-76
2023/06/28 07:40:01;;;;;;;6.70;4.60;;;;;;;;;;5033960;28;20136;-75
2023/06/28 07:42:27;;;;;;;5.93;4.57;;;;;;;;;;5033165;28;20050;-76
2023/06/28 07:44:53;;;;;;;9.98;5.20;;;;;;;;;;5034004;28;20057;-75
2023/06/28 07:47:19;;;;;;;4.60;3.85;;;;;;;;;;5032780;28;20045;-75
2023/06/28 07:49:45;;;;;;;5.90;4.28;;;;;;;;;;5033946;28;20045;-75
2023/06/28 07:52:12;;;;;;;8.32;3.78;;;;;;;;;;5032932;28;20045;-76
2023/06/28 07:54:38;;;;;;;8.18;4.60;;;;;;;;;;5033868;28;20409;-75
2023/06/28 07:57:04;;;;;;;7.78;4.20;;;;;;;;;;5033858;28;20100;-75
2023/06/28 07:59:30;;;;;;;4.75;3.75;;;;;;;;;;5032766;28;20045;-75
2023/06/28 08:01:56;;;;;;;5.70;3.80;;;;;;;;;;5032560;28;20053;-75
2023/06/28 08:04:22;;;;;;;9.98;4.80;;;;;;;;;;5033498;28;20394;-75
2023/06/28 08:06:49;;;;;;;5.63;4.68;;;;;;;;;;5032773;28;20128;-75
2023/06/28 08:09:15;;;;;;;5.50;4.30;;;;;;;;;;5032709;28;20468;-75
2023/06/28 08:11:41;;;;;;;5.72;4.57;;;;;;;;;;5033413;28;20053;-75
2023/06/28 08:14:07;;;;;;;6.60;4.30;;;;;;;;;;5032658;28;20092;-75
2023/06/28 08:16:34;;;;;;;6.13;4.22;;;;;;;;;;5032910;28;20495;-76
2023/06/28 08:19:00;;;;;;;7.07;4.45;;;;;;;;;;5032563;28;20194;-76
2023/06/28 08:21:26;;;;;;;7.45;4.93;;;;;;;;;;5032569;28;20049;-76
2023/06/28 08:23:52;;;;;;;6.10;4.90;;;;;;;;;;4999850;28;20053;-76
2023/06/28 08:26:18;;;;;;;7.70;5.03;;;;;;;;;;4995131;28;1102026;-76
2023/06/28 08:28:44;;;;;;;7.28;4.60;;;;;;;;;;5033179;28;20056;-76
2023/06/28 08:31:13;;;;;;;7.22;4.90;;;;;;;;;;5033020;28;20045;-76
2023/06/28 08:33:39;;;;;;;6.97;5.10;;;;;;;;;;5016792;28;20053;-76
2023/06/28 08:36:05;;;;;;;6.10;4.70;;;;;;;;;;5034012;28;20088;-76
2023/06/28 08:38:31;;;;;;;6.63;4.32;;;;;;;;;;5034102;28;20042;-76
2023/06/28 08:40:57;;;;;;;5.70;4.55;;;;;;;;;;5033004;28;20595;-76
2023/06/28 08:43:24;;;;;;;5.35;4.13;;;;;;;;;;5032933;28;20045;-76
2023/06/28 08:45:50;;;;;;;8.68;4.30;;;;;;;;;;5032474;28;20045;-76
2023/06/28 08:48:17;;;;;;;6.82;4.40;;;;;;;;;;5033108;28;20071;-76
2023/06/28 08:50:44;;;;;;;7.20;5.40;;;;;;;;;;5032814;28;20103;-77
2023/06/28 08:53:16;;;;;;;4.93;4.35;;;;;;;;;;5033660;28;20053;-76
2023/06/28 08:55:42;;;;;;;6.07;4.50;;;;;;;;;;5033829;28;20080;-75
2023/06/28 08:58:10;;;;;;;7.75;4.68;;;;;;;;;;5033280;28;20369;-76
2023/06/28 09:00:37;;;;;;;7.35;4.70;;;;;;;;;;5033473;28;20053;-76
2023/06/28 09:03:04;;;;;;;7.28;5.18;;;;;;;;;;5032627;28;20085;-76
2023/06/28 09:05:31;;;;;;;8.75;5.63;;;;;;;;;;5032872;28;20060;-76
2023/06/28 09:07:57;;;;;;;8.35;5.90;;;;;;;;;;5032829;28;20041;-78
2023/06/28 09:10:24;;;;;;;10.38;5.75;;;;;;;;;;5033833;28;20054;-75
2023/06/28 09:12:50;;;;;;;8.23;5.80;;;;;;;;;;5032546;28;20049;-75
2023/06/28 09:15:22;;;;;;;7.53;6.10;;;;;;;;;;5032487;28;20050;-77
2023/06/28 09:17:48;;;;;;;10.30;5.47;;;;;;;;;;5032673;28;20107;-76
2023/06/28 09:20:15;;;;;;;7.10;6.40;;;;;;;;;;5032379;28;20041;-76
2023/06/28 09:22:41;;;;;;;8.10;6.45;;;;;;;;;;5016050;28;20087;-76
2023/06/28 09:25:08;;;;;;;10.23;6.78;;;;;;;;;;5032207;28;20082;-76
2023/06/28 09:27:34;;;;;;;8.73;6.70;;;;;;;;;;5033991;28;20046;-76
2023/06/28 09:30:00;;;;;;;7.93;6.80;;;;;;;;;;5033288;28;20049;-76
2023/06/28 09:32:39;;;;;;;8.23;6.78;;;;;;;;;;5033366;28;20056;-75
2023/06/28 09:35:10;;;;;;;10.57;7.95;;;;;;;;;;5016778;28;20064;-75
2023/06/28 09:37:37;;;;;;;9.07;6.72;;;;;;;;;;5016177;28;20050;-75
2023/06/28 09:40:05;;;;;;;10.82;8.23;;;;;;;;;;5032210;28;20112;-76
2023/06/28 09:42:32;;;;;;;9.88;8.57;;;;;;;;;;5032192;28;20049;-76
2023/06/28 09:44:58;;;;;;;11.02;9.00;;;;;;;;;;5033224;28;20052;-78
2023/06/28 09:47:33;;;;;;;13.82;9.98;;;;;;;;;;5032692;28;20046;-76
2023/06/28 09:50:03;;;;;;;9.93;8.80;;;;;;;;;;5033227;28;20089;-76
2023/06/28 09:52:35;;;;;;;15.68;8.63;;;;;;;;;;5032002;28;20042;-75
2023/06/28 09:55:03;;;;;;;12.43;8.57;;;;;;;;;;5033978;28;20375;-76
2023/06/28 09:57:31;;;;;;;12.60;9.80;;;;;;;;;;5032105;28;20049;-76
2023/06/28 09:59:58;;;;;;;14.02;10.10;;;;;;;;;;5032091;28;20045;-76
2023/06/28 10:02:25;;;;;;;14.43;10.43;;;;;;;;;;5015632;28;20081;-76
2023/06/28 10:04:52;;;;;;;15.35;11.40;;;;;;;;;;5032068;28;20500;-76
2023/06/28 10:07:19;;;;;;;14.75;11.05;;;;;;;;;;5015411;28;20132;-75
2023/06/28 10:09:45;;;;;;;14.55;11.27;;;;;;;;;;5031833;28;20072;-76
2023/06/28 10:12:13;;;;;;;15.13;11.90;;;;;;;;;;5032891;28;20045;-76
2023/06/28 10:14:41;;;;;;;12.18;10.95;;;;;;;;;;5031938;28;20488;-75
2023/06/28 10:17:08;;;;;;;16.45;11.15;;;;;;;;;;5033231;28;20551;-76
2023/06/28 10:19:34;;;;;;;13.57;10.73;;;;;;;;;;5031797;28;20090;-75
2023/06/28 10:22:00;;;;;;;15.18;12.50;;;;;;;;;;5031960;28;20409;-75
2023/06/28 10:24:31;;;;;;;12.75;11.40;;;;;;;;;;5032727;28;20060;-76
2023/06/28 10:26:58;;;;;;;16.45;11.73;;;;;;;;;;5035117;28;20377;-76
2023/06/28 10:29:24;;;;;;;11.27;10.18;;;;;;;;;;5036342;28;20045;-76
2023/06/28 10:31:52;;;;;;;11.65;10.38;;;;;;;;;;5036234;28;20049;-75
2023/06/28 10:34:19;;;;;;;13.20;11.05;;;;;;;;;;5037165;28;20428;-75
2023/06/28 10:36:45;;;;;;;10.98;9.90;;;;;;;;;;5036230;28;20045;-75
2023/06/28 10:39:11;;;;;;;11.82;10.63;;;;;;;;;;5036759;28;20515;-75
2023/06/28 10:41:38;;;;;;;12.02;10.48;;;;;;;;;;5035989;28;20049;-75
2023/06/28 10:44:07;;;;;;;11.48;10.32;;;;;;;;;;5035957;28;20045;-76
2023/06/28 10:46:34;;;;;;;10.90;9.85;;;;;;;;;;5034945;28;20111;-76
2023/06/28 10:49:01;;;;;;;10.77;9.52;;;;;;;;;;5035129;28;20076;-75
2023/06/28 10:51:28;;;;;;;11.10;9.98;;;;;;;;;;5019004;28;20046;-77
2023/06/28 10:54:06;;;;;;;10.93;9.82;;;;;;;;;;5034953;28;20049;-75
2023/06/28 10:56:36;;;;;;;10.85;9.73;;;;;;;;;;5019328;28;20107;-75
2023/06/28 10:59:04;;;;;;;12.50;11.25;;;;;;;;;;5035279;28;20064;-75
2023/06/28 11:01:38;;;;;;;11.23;10.15;;;;;;;;;;5035992;28;20132;-77
2023/06/28 11:04:18;;;;;;;11.77;10.50;;;;;;;;;;5034469;28;20141;-75
2023/06/28 11:06:44;;;;;;;10.15;9.25;;;;;;;;;;5035419;28;20041;-76
2023/06/28 11:09:16;;;;;;;10.40;9.50;;;;;;;;;;5035418;28;20103;-77
2023/06/28 11:12:07;;;;;;;12.27;11.02;;;;;;;;;;5035947;28;20124;-76
2023/06/28 11:14:34;;;;;;;12.38;11.27;;;;;;;;;;5034655;28;20448;-76
2023/06/28 11:17:06;;;;;;;12.40;11.30;;;;;;;;;;5035551;28;20112;-76
2023/06/28 11:19:39;;;;;;;12.40;10.32;;;;;;;;;;5035987;28;20049;-76
2023/06/28 11:22:06;;;;;;;11.65;10.50;;;;;;;;;;5035550;28;20067;-76
2023/06/28 11:24:38;;;;;;;11.48;10.43;;;;;;;;;;5035240;28;20041;-76
2023/06/28 11:27:14;;;;;;;11.70;10.55;;;;;;;;;;5034212;28;20053;-76
2023/06/28 11:29:57;;;;;;;10.55;9.85;;;;;;;;;;5034228;28;20057;-76
2023/06/28 11:32:25;;;;;;;10.05;9.05;;;;;;;;;;5035181;28;20053;-76
2023/06/28 11:34:51;;;;;;;9.77;8.98;;;;;;;;;;5034218;28;20049;-75
2023/06/28 11:37:17;;;;;;;9.13;8.57;;;;;;;;;;5034427;28;20045;-75
2023/06/28 11:39:46;;;;;;;10.43;9.48;;;;;;;;;;5034146;28;20049;-76
2023/06/28 11:42:13;;;;;;;9.00;8.40;;;;;;;;;;5034073;28;20041;-76
2023/06/28 11:44:44;;;;;;;9.00;8.30;;;;;;;;;;5034026;28;20612;-74
2023/06/28 11:47:10;;;;;;;10.82;8.23;;;;;;;;;;5034854;28;20076;-76
2023/06/28 11:49:36;;;;;;;9.88;8.98;;;;;;;;;;5034096;28;20469;-76
2023/06/28 11:52:02;;;;;;;9.15;8.45;;;;;;;;;;5034534;28;20385;-76
2023/06/28 11:54:31;;;;;;;10.50;8.70;;;;;;;;;;5034598;28;20056;-76
2023/06/28 11:56:57;;;;;;;10.80;9.90;;;;;;;;;;5035139;28;20053;-76
2023/06/28 11:59:26;;;;;;;8.55;7.97;;;;;;;;;;5033736;28;20061;-77
2023/06/28 12:02:08;;;;;;;9.57;8.88;;;;;;;;;;5034578;28;20544;-75
2023/06/28 12:04:36;;;;;;;10.20;9.50;;;;;;;;;;5034614;28;20042;-75
2023/06/28 12:07:04;;;;;;;9.95;9.00;;;;;;;;;;5016918;28;20529;-76
2023/06/28 12:09:31;;;;;;;9.02;8.20;;;;;;;;;;5033578;28;20065;-81
2023/06/28 12:12:05;;;;;;;10.38;9.55;;;;;;;;;;5033418;28;20041;-76
2023/06/28 12:14:38;;;;;;;10.13;9.30;;;;;;;;;;5034831;28;20053;-76
2023/06/28 12:17:04;;;;;;;10.82;9.88;;;;;;;;;;5033529;28;20060;-76
2023/06/28 12:19:35;;;;;;;9.52;8.70;;;;;;;;;;5034942;28;20060;-76
2023/06/28 12:22:05;;;;;;;9.85;8.98;;;;;;;;;;5033518;28;20041;-76
2023/06/28 12:24:34;;;;;;;10.98;9.93;;;;;;;;;;5034192;28;20136;-77
2023/06/28 12:27:01;;;;;;;10.13;9.32;;;;;;;;;;5032782;28;20061;-76
2023/06/28 12:29:32;;;;;;;10.93;10.13;;;;;;;;;;5033940;28;20049;-76
2023/06/28 12:32:03;;;;;;;11.45;10.40;;;;;;;;;;5032977;28;20136;-76
2023/06/28 12:34:31;;;;;;;11.85;10.85;;;;;;;;;;5033457;28;20053;-76
2023/06/28 12:36:59;;;;;;;14.90;13.80;;;;;;;;;;5034041;28;20176;-76
2023/06/28 12:39:26;;;;;;;15.02;13.73;;;;;;;;;;5033078;28;20508;-76
2023/06/28 12:41:58;;;;;;;12.93;11.75;;;;;;;;;;5033987;28;20478;-76
2023/06/28 12:44:24;;;;;;;13.25;12.15;;;;;;;;;;5033004;28;20042;-76
2023/06/28 12:46:50;;;;;;;12.80;11.50;;;;;;;;;;5032703;28;20110;-76
2023/06/28 12:49:16;;;;;;;13.27;12.18;;;;;;;;;;5034486;28;20436;-76
2023/06/28 12:51:42;;;;;;;12.18;11.18;;;;;;;;;;5034682;28;20056;-76
2023/06/28 12:54:09;;;;;;;12.40;11.23;;;;;;;;;;5033418;28;20111;-77
2023/06/28 12:56:35;;;;;;;13.00;11.80;;;;;;;;;;5032821;28;20522;-77
2023/06/28 12:59:01;;;;;;;12.75;11.35;;;;;;;;;;5033545;28;20055;-77
2023/06/28 13:01:27;;;;;;;12.98;11.75;;;;;;;;;;5033340;28;20061;-77
2023/06/28 13:03:54;;;;;;;13.95;12.05;;;;;;;;;;5033025;28;20079;-77
2023/06/28 13:06:24;;;;;;;12.57;11.43;;;;;;;;;;5033389;28;20053;-77
2023/06/28 13:08:51;;;;;;;14.30;13.07;;;;;;;;;;5033629;28;20536;-76
2023/06/28 13:11:17;;;;;;;12.57;11.40;;;;;;;;;;5033599;28;20169;-77
2023/06/28 13:13:43;;;;;;;14.48;12.98;;;;;;;;;;5032402;28;20478;-77
2023/06/28 13:16:09;;;;;;;13.18;11.52;;;;;;;;;;5032604;28;20464;-77
2023/06/28 13:18:36;;;;;;;13.18;11.88;;;;;;;;;;5033565;28;20049;-77
2023/06/28 13:21:02;;;;;;;14.43;12.57;;;;;;;;;;5033529;28;20082;-77
2023/06/28 13:23:28;;;;;;;15.55;14.05;;;;;;;;;;5032498;28;20045;-77
2023/06/28 13:25:54;;;;;;;13.85;12.00;;;;;;;;;;5032333;28;20061;-77
2023/06/28 13:28:20;;;;;;;15.07;13.48;;;;;;;;;;5033232;28;20405;-77
2023/06/28 13:30:46;;;;;;;13.77;12.23;;;;;;;;;;5032558;28;20045;-77
2023/06/28 13:33:12;;;;;;;15.00;13.40;;;;;;;;;;5032164;28;20130;-76
2023/06/28 13:35:38;;;;;;;14.07;12.38;;;;;;;;;;5032409;28;20042;-77
2023/06/28 13:38:04;;;;;;;15.35;13.70;;;;;;;;;;5032446;28;20052;-77
2023/06/28 13:40:31;;;;;;;18.23;14.10;;;;;;;;;;5033135;28;20567;-77
2023/06/28 13:42:57;;;;;;;14.20;12.73;;;;;;;;;;5033333;28;20047;-77
2023/06/28 13:45:23;;;;;;;17.67;13.60;;;;;;;;;;5033328;28;20056;-77
2023/06/28 13:47:49;;;;;;;16.08;13.70;;;;;;;;;;5033222;28;20050;-77
2023/06/28 13:50:15;;;;;;;17.02;14.90;;;;;;;;;;5033770;28;20444;-76
2023/06/28 13:52:41;;;;;;;18.45;14.93;;;;;;;;;;5033797;28;20085;-77
2023/06/28 13:55:07;;;;;;;15.65;14.00;;;;;;;;;;5033945;28;20052;-76
2023/06/28 13:57:34;;;;;;;14.88;13.35;;;;;;;;;;5031996;28;20056;-78
2023/06/28 14:00:00;;;;;;;16.88;13.43;;;;;;;;;;5032407;28;20057;-76
2023/06/28 14:02:27;;;;;;;15.35;12.98;;;;;;;;;;5034209;28;20057;-76
2023/06/28 14:04:53;;;;;;;15.98;14.23;;;;;;;;;;5037502;28;20049;-76
2023/06/28 14:07:19;;;;;;;17.10;14.75;;;;;;;;;;5036815;28;20041;-76
2023/06/28 14:09:45;;;;;;;15.98;14.38;;;;;;;;;;5019360;28;20053;-77
2023/06/28 14:12:13;;;;;;;16.05;14.40;;;;;;;;;;5035453;28;20049;-76
2023/06/28 14:14:40;;;;;;;16.67;14.73;;;;;;;;;;5036677;28;20370;-77
2023/06/28 14:17:06;;;;;;;16.17;14.48;;;;;;;;;;5036624;28;20048;-77
2023/06/28 14:19:32;;;;;;;15.90;14.10;;;;;;;;;;5036642;28;20051;-76
2023/06/28 14:22:08;;;;;;;18.20;13.77;;;;;;;;;;5036464;28;20136;-76
2023/06/28 14:24:34;;;;;;;22.38;14.85;;;;;;;;;;5036575;28;20049;-76
2023/06/28 14:27:00;;;;;;;16.88;13.32;;;;;;;;;;5035610;28;20053;-76
2023/06/28 14:29:26;;;;;;;17.30;13.82;;;;;;;;;;5036940;28;20049;-76
2023/06/28 14:31:52;;;;;;;19.35;14.02;;;;;;;;;;5036986;28;20053;-76
2023/06/28 14:34:18;;;;;;;17.15;13.63;;;;;;;;;;5035904;28;20049;-76